createdAt,value
2019-05-11T00:00:23.090Z,6.40
2019-05-11T00:02:55.044Z,5.77
2019-05-11T00:05:27.061Z,6.13
2019-05-11T00:07:59.344Z,5.57
2019-05-11T00:10:31.236Z,6.22
2019-05-11T00:13:03.197Z,6.00
2019-05-11T00:15:35.049Z,5.63
2019-05-11T00:18:06.606Z,5.77
2019-05-11T00:20:38.464Z,5.47
2019-05-11T00:23:10.710Z,5.47
2019-05-11T00:25:42.517Z,5.00
2019-05-11T00:28:14.033Z,4.95
2019-05-11T00:30:46.343Z,5.20
2019-05-11T00:33:17.881Z,5.30
2019-05-11T00:35:50.116Z,4.90
2019-05-11T00:38:22.014Z,5.20
2019-05-11T00:40:54.020Z,5.23
2019-05-11T00:43:25.725Z,5.20
2019-05-11T00:45:57.255Z,5.57
2019-05-11T00:48:29.219Z,5.33
2019-05-11T00:51:01.078Z,6.30
2019-05-11T00:53:33.321Z,6.83
2019-05-11T00:56:04.803Z,6.80
2019-05-11T00:58:36.659Z,6.17
2019-05-11T01:01:08.005Z,6.20
2019-05-11T01:03:39.780Z,5.87
2019-05-11T01:06:12.000Z,5.77
2019-05-11T01:08:43.856Z,5.70
2019-05-11T01:11:15.541Z,5.20
2019-05-11T01:13:47.207Z,4.92
2019-05-11T01:16:19.163Z,5.17
2019-05-11T01:18:51.207Z,5.08
2019-05-11T01:21:23.250Z,5.73
2019-05-11T01:23:55.262Z,5.07
2019-05-11T01:26:27.487Z,4.97
2019-05-11T01:28:59.291Z,5.07
2019-05-11T01:31:31.160Z,5.07
2019-05-11T01:34:03.288Z,4.70
2019-05-11T01:36:35.264Z,5.23
2019-05-11T01:39:07.542Z,5.63
2019-05-11T01:41:39.314Z,4.67
2019-05-11T01:44:10.754Z,5.10
2019-05-11T01:46:42.305Z,4.47
2019-05-11T01:49:14.345Z,5.27
2019-05-11T01:51:45.957Z,5.07
2019-05-11T01:54:17.812Z,5.00
2019-05-11T01:56:49.881Z,5.77
2019-05-11T01:59:21.505Z,5.50
2019-05-11T02:01:53.353Z,6.83
2019-05-11T02:04:25.203Z,6.13
2019-05-11T02:06:57.096Z,5.87
2019-05-11T02:09:28.775Z,6.87
2019-05-11T02:12:00.510Z,6.33
2019-05-11T02:14:32.453Z,5.87
2019-05-11T02:17:04.309Z,7.25
2019-05-11T02:19:35.584Z,7.47
2019-05-11T02:22:07.453Z,6.63
2019-05-11T02:24:38.665Z,5.80
2019-05-11T02:27:10.219Z,6.47
2019-05-11T02:29:42.484Z,6.73
2019-05-11T02:32:14.154Z,6.27
2019-05-11T02:34:46.033Z,6.35
2019-05-11T02:37:17.814Z,6.13
2019-05-11T02:39:49.648Z,6.17
2019-05-11T02:42:21.337Z,5.87
2019-05-11T02:44:52.817Z,6.20
2019-05-11T02:47:24.436Z,6.20
2019-05-11T02:49:56.053Z,6.57
2019-05-11T02:52:28.018Z,6.63
2019-05-11T02:55:01.566Z,5.67
2019-05-11T02:57:33.225Z,5.73
2019-05-11T03:00:06.097Z,5.83
2019-05-11T03:02:38.104Z,5.80
2019-05-11T03:05:09.573Z,5.43
2019-05-11T03:07:41.377Z,5.60
2019-05-11T03:10:12.641Z,6.17
2019-05-11T03:12:44.509Z,6.50
2019-05-11T03:15:17.521Z,6.30
2019-05-11T03:17:48.944Z,6.13
2019-05-11T03:20:20.498Z,5.83
2019-05-11T03:22:52.487Z,6.67
2019-05-11T03:25:24.628Z,6.03
2019-05-11T03:27:57.926Z,6.67
2019-05-11T03:30:29.192Z,6.57
2019-05-11T03:33:01.169Z,6.87
2019-05-11T03:35:33.982Z,6.30
2019-05-11T03:38:05.742Z,6.00
2019-05-11T03:40:37.255Z,6.53
2019-05-11T03:43:08.797Z,6.27
2019-05-11T03:45:40.585Z,6.53
2019-05-11T03:48:12.808Z,5.17
2019-05-11T03:50:44.588Z,6.50
2019-05-11T03:53:16.563Z,6.43
2019-05-11T03:55:48.793Z,6.80
2019-05-11T03:58:25.517Z,5.87
2019-05-11T04:00:53.681Z,5.70
2019-05-11T04:03:25.651Z,6.70
2019-05-11T04:05:57.452Z,6.10
2019-05-11T04:08:29.614Z,6.10
2019-05-11T04:11:01.273Z,5.97
2019-05-11T04:13:33.074Z,5.77
2019-05-11T04:16:04.380Z,5.70
2019-05-11T04:18:37.124Z,6.00
2019-05-11T04:21:09.189Z,5.70
2019-05-11T04:23:41.058Z,5.97
2019-05-11T04:26:12.533Z,6.30
2019-05-11T04:28:44.621Z,5.90
2019-05-11T04:31:16.343Z,6.00
2019-05-11T04:33:47.802Z,6.50
2019-05-11T04:36:19.762Z,5.87
2019-05-11T04:38:52.761Z,6.10
2019-05-11T04:41:24.912Z,6.03
2019-05-11T04:43:56.480Z,6.13
2019-05-11T04:46:27.927Z,6.23
2019-05-11T04:49:00.060Z,6.37
2019-05-11T04:51:31.637Z,6.03
2019-05-11T04:54:03.713Z,6.90
2019-05-11T04:56:35.578Z,7.73
2019-05-11T04:59:07.246Z,6.75
2019-05-11T05:01:39.189Z,6.63
2019-05-11T05:04:14.295Z,6.03
2019-05-11T05:06:57.835Z,6.27
2019-05-11T05:09:19.300Z,6.80
2019-05-11T05:11:51.748Z,6.27
2019-05-11T05:14:23.789Z,5.30
2019-05-11T05:16:55.701Z,6.28
2019-05-11T05:19:28.182Z,6.33
2019-05-11T05:22:02.176Z,6.67
2019-05-11T05:24:34.840Z,6.50
2019-05-11T05:27:07.017Z,5.90
2019-05-11T05:29:39.477Z,7.10
2019-05-11T05:32:11.338Z,6.30
2019-05-11T05:34:42.896Z,6.80
2019-05-11T05:37:15.686Z,5.97
2019-05-11T05:39:48.105Z,6.97
2019-05-11T05:42:19.901Z,6.83
2019-05-11T05:44:52.146Z,6.35
2019-05-11T05:47:23.909Z,6.47
2019-05-11T05:49:56.090Z,6.15
2019-05-11T05:52:27.429Z,6.50
2019-05-11T05:54:59.947Z,5.67
2019-05-11T05:57:31.611Z,5.67
2019-05-11T06:00:03.250Z,5.80
2019-05-11T06:02:35.312Z,6.60
2019-05-11T06:05:06.962Z,6.53
2019-05-11T06:07:39.264Z,5.70
2019-05-11T06:10:11.007Z,5.37
2019-05-11T06:12:43.176Z,6.17
2019-05-11T06:15:14.679Z,5.33
2019-05-11T06:17:46.379Z,6.23
2019-05-11T06:20:18.112Z,5.87
2019-05-11T06:22:50.244Z,5.40
2019-05-11T06:25:22.095Z,6.47
2019-05-11T06:27:54.219Z,6.67
2019-05-11T06:30:25.674Z,5.67
2019-05-11T06:32:57.907Z,5.77
2019-05-11T06:35:29.966Z,6.07
2019-05-11T06:38:01.545Z,5.80
2019-05-11T06:40:33.489Z,5.20
2019-05-11T06:43:05.626Z,5.50
2019-05-11T06:45:37.555Z,5.50
2019-05-11T06:48:09.599Z,5.62
2019-05-11T06:50:41.171Z,5.43
2019-05-11T06:53:12.788Z,4.50
2019-05-11T06:55:44.331Z,4.90
2019-05-11T06:58:16.837Z,5.23
2019-05-11T07:00:48.543Z,4.62
2019-05-11T07:03:20.428Z,4.50
2019-05-11T07:05:52.476Z,4.10
2019-05-11T07:08:24.256Z,3.93
2019-05-11T07:10:56.111Z,4.28
2019-05-11T07:13:27.939Z,4.27
2019-05-11T07:15:59.179Z,3.70
2019-05-11T07:18:31.180Z,3.80
2019-05-11T07:21:03.287Z,3.07
2019-05-11T07:23:34.804Z,3.23
2019-05-11T07:26:06.697Z,4.20
2019-05-11T07:28:38.445Z,3.07
2019-05-11T07:31:10.685Z,3.50
2019-05-11T07:33:42.561Z,3.03
2019-05-11T07:36:14.504Z,2.97
2019-05-11T07:38:48.599Z,3.37
2019-05-11T07:41:20.017Z,2.75
2019-05-11T07:43:51.988Z,2.80
2019-05-11T07:46:23.716Z,2.60
2019-05-11T07:48:55.564Z,3.35
2019-05-11T07:51:28.788Z,2.97
2019-05-11T07:54:02.150Z,2.83
2019-05-11T07:56:33.945Z,3.00
2019-05-11T07:59:05.027Z,2.93
2019-05-11T08:01:38.675Z,2.67
2019-05-11T08:04:10.629Z,3.25
2019-05-11T08:06:43.223Z,3.33
2019-05-11T08:09:15.303Z,3.23
2019-05-11T08:11:47.897Z,2.52
2019-05-11T08:14:19.998Z,2.80
2019-05-11T08:16:51.837Z,2.52
2019-05-11T08:19:23.537Z,2.57
2019-05-11T08:21:55.151Z,2.67
2019-05-11T08:24:28.410Z,2.60
2019-05-11T08:27:00.418Z,2.35
2019-05-11T08:29:32.628Z,2.87
2019-05-11T08:32:04.351Z,2.40
2019-05-11T08:34:36.288Z,1.90
2019-05-11T08:37:08.849Z,2.00
2019-05-11T08:39:41.747Z,1.90
2019-05-11T08:42:13.530Z,2.43
2019-05-11T08:44:48.278Z,2.57
2019-05-11T08:47:19.629Z,2.62
2019-05-11T08:49:51.379Z,1.77
2019-05-11T08:52:22.646Z,2.40
2019-05-11T08:54:53.953Z,1.70
2019-05-11T08:57:25.706Z,2.20
2019-05-11T08:59:58.024Z,2.42
2019-05-11T09:02:30.124Z,2.05
2019-05-11T09:05:02.022Z,3.07
2019-05-11T09:07:34.167Z,1.87
2019-05-11T09:10:07.967Z,2.23
2019-05-11T09:12:39.106Z,2.43
2019-05-11T09:17:49.911Z,2.90
2019-05-11T09:20:21.434Z,2.07
2019-05-11T09:22:53.435Z,2.12
2019-05-11T09:25:25.160Z,2.77
2019-05-11T09:27:58.758Z,2.20
2019-05-11T09:30:30.761Z,2.27
2019-05-11T09:33:03.509Z,2.27
2019-05-11T09:35:46.645Z,2.10
2019-05-11T09:38:09.082Z,1.90
2019-05-11T09:40:40.732Z,1.83
2019-05-11T09:43:13.396Z,2.12
2019-05-11T09:45:48.645Z,1.57
2019-05-11T09:48:18.556Z,2.23
2019-05-11T09:50:49.922Z,2.07
2019-05-11T09:53:22.207Z,1.52
2019-05-11T09:55:53.905Z,2.00
2019-05-11T09:58:27.937Z,1.83
2019-05-11T10:00:59.486Z,1.50
2019-05-11T10:03:31.358Z,2.30
2019-05-11T10:06:03.284Z,2.13
2019-05-11T10:08:38.099Z,1.60
2019-05-11T10:11:09.235Z,2.00
2019-05-11T10:13:41.770Z,2.10
2019-05-11T10:16:13.780Z,2.10
2019-05-11T10:18:45.474Z,1.93
2019-05-11T10:21:18.730Z,2.20
2019-05-11T10:23:50.985Z,2.25
2019-05-11T10:26:22.383Z,2.20
2019-05-11T10:28:54.677Z,1.80
2019-05-11T10:31:28.258Z,2.10
2019-05-11T10:33:59.503Z,2.17
2019-05-11T10:36:31.379Z,2.50
2019-05-11T10:39:03.438Z,2.27
2019-05-11T10:41:35.392Z,2.20
2019-05-11T10:44:08.246Z,2.57
2019-05-11T10:46:40.236Z,2.57
2019-05-11T10:49:11.553Z,2.60
2019-05-11T10:51:43.493Z,2.07
2019-05-11T10:54:15.145Z,2.90
2019-05-11T10:56:48.176Z,2.73
2019-05-11T10:59:19.642Z,3.00
2019-05-11T11:01:51.620Z,3.15
2019-05-11T11:04:24.169Z,3.93
2019-05-11T11:06:56.399Z,3.40
2019-05-11T11:09:29.022Z,3.37
2019-05-11T11:12:01.037Z,3.03
2019-05-11T11:14:33.032Z,4.00
2019-05-11T11:17:05.422Z,2.97
2019-05-11T11:19:38.086Z,4.37
2019-05-11T11:22:34.983Z,4.07
2019-05-11T11:24:43.472Z,3.53
2019-05-11T11:27:15.322Z,4.67
2019-05-11T11:29:47.587Z,4.17
2019-05-11T11:32:19.646Z,3.52
2019-05-11T11:34:51.838Z,3.87
2019-05-11T11:37:23.815Z,4.23
2019-05-11T11:39:57.970Z,3.47
2019-05-11T11:42:29.374Z,3.70
2019-05-11T11:45:01.884Z,3.52
2019-05-11T11:47:34.696Z,4.13
2019-05-11T11:50:09.091Z,3.63
2019-05-11T11:52:41.326Z,4.13
2019-05-11T11:55:13.355Z,3.83
2019-05-11T11:57:45.567Z,4.07
2019-05-11T12:00:18.367Z,4.20
2019-05-11T12:02:50.370Z,3.97
2019-05-11T12:05:22.433Z,3.72
2019-05-11T12:07:54.231Z,3.97
2019-05-11T12:10:25.569Z,4.42
2019-05-11T12:12:58.075Z,4.33
2019-05-11T12:15:31.326Z,3.90
2019-05-11T12:18:03.282Z,4.43
2019-05-11T12:20:35.408Z,4.23
2019-05-11T12:23:08.744Z,3.90
2019-05-11T12:25:40.802Z,3.93
2019-05-11T12:28:12.640Z,4.30
2019-05-11T12:30:43.914Z,4.77
2019-05-11T12:33:18.638Z,4.60
2019-05-11T12:35:50.741Z,6.43
2019-05-11T12:38:22.492Z,4.97
2019-05-11T12:40:54.395Z,5.20
2019-05-11T12:43:27.761Z,6.20
2019-05-11T12:45:59.162Z,6.40
2019-05-11T12:48:31.346Z,6.13
2019-05-11T12:51:03.410Z,5.53
2019-05-11T12:53:35.685Z,6.13
2019-05-11T12:56:08.227Z,5.53
2019-05-11T12:58:40.319Z,5.10
2019-05-11T13:01:12.779Z,4.77
2019-05-11T13:03:44.411Z,4.93
2019-05-11T13:06:19.125Z,4.53
2019-05-11T13:08:50.795Z,5.43
2019-05-11T13:11:23.513Z,4.87
2019-05-11T13:13:55.327Z,5.30
2019-05-11T13:16:28.744Z,5.10
2019-05-11T13:19:00.992Z,5.17
2019-05-11T13:21:33.522Z,3.87
2019-05-11T13:24:05.343Z,4.40
2019-05-11T13:26:38.006Z,4.33
2019-05-11T13:29:11.016Z,4.10
2019-05-11T13:31:42.781Z,4.40
2019-05-11T13:34:14.351Z,4.27
2019-05-11T13:36:48.759Z,4.30
2019-05-11T13:39:19.766Z,4.87
2019-05-11T13:41:51.235Z,4.27
2019-05-11T13:44:23.264Z,5.23
2019-05-11T13:46:55.238Z,4.50
2019-05-11T13:49:28.325Z,4.13
2019-05-11T13:52:00.899Z,5.15
2019-05-11T13:54:32.908Z,5.00
2019-05-11T13:57:04.395Z,4.67
2019-05-11T13:59:38.461Z,4.55
2019-05-11T14:02:11.062Z,5.00
2019-05-11T14:04:43.297Z,4.33
2019-05-11T14:07:15.569Z,5.10
2019-05-11T14:09:48.520Z,5.77
2019-05-11T14:12:20.502Z,5.07
2019-05-11T14:14:52.382Z,5.27
2019-05-11T14:17:24.118Z,5.63
2019-05-11T14:19:58.470Z,5.90
2019-05-11T14:22:30.837Z,4.90
2019-05-11T14:25:02.665Z,4.62
2019-05-11T14:27:35.189Z,5.07
2019-05-11T14:30:08.562Z,5.30
2019-05-11T14:32:40.805Z,5.80
2019-05-11T14:35:12.537Z,5.13
2019-05-11T14:37:45.395Z,5.60
2019-05-11T14:40:17.957Z,5.83
2019-05-11T14:42:49.909Z,5.43
2019-05-11T14:45:22.018Z,5.03
2019-05-11T14:47:54.146Z,5.97
2019-05-11T14:50:28.181Z,5.27
2019-05-11T14:52:59.566Z,5.40
2019-05-11T14:55:31.242Z,5.20
2019-05-11T14:58:03.084Z,5.47
2019-05-11T15:00:36.892Z,5.30
2019-05-11T15:03:08.646Z,5.20
2019-05-11T15:05:41.530Z,5.60
2019-05-11T15:08:13.677Z,4.63
2019-05-11T15:10:45.397Z,5.60
2019-05-11T15:13:18.589Z,4.50
2019-05-11T15:15:50.291Z,4.50
2019-05-11T15:18:35.287Z,4.60
2019-05-11T15:20:55.480Z,4.50
2019-05-11T15:23:28.454Z,4.20
2019-05-11T15:26:00.454Z,5.00
2019-05-11T15:28:31.876Z,5.90
2019-05-11T15:31:03.925Z,4.83
2019-05-11T15:33:38.043Z,5.40
2019-05-11T15:36:10.321Z,4.23
2019-05-11T15:38:42.363Z,5.27
2019-05-11T15:41:14.626Z,6.17
2019-05-11T15:43:47.954Z,4.90
2019-05-11T15:46:20.032Z,5.03
2019-05-11T15:48:58.733Z,5.83
2019-05-11T15:51:25.989Z,4.33
2019-05-11T15:53:58.737Z,3.97
2019-05-11T15:56:30.016Z,4.13
2019-05-11T15:59:01.640Z,5.10
2019-05-11T16:01:33.937Z,4.03
2019-05-11T16:04:05.299Z,4.90
2019-05-11T16:06:36.963Z,5.07
2019-05-11T16:09:08.638Z,5.07
2019-05-11T16:11:40.432Z,5.80
2019-05-11T16:14:12.287Z,5.00
2019-05-11T16:16:44.143Z,4.27
2019-05-11T16:19:15.813Z,4.77
2019-05-11T16:21:47.461Z,4.70
2019-05-11T16:24:19.341Z,5.03
2019-05-11T16:26:51.697Z,3.90
2019-05-11T16:29:23.746Z,5.73
2019-05-11T16:31:57.842Z,4.90
2019-05-11T16:34:29.419Z,4.87
2019-05-11T16:37:01.712Z,4.40
2019-05-11T16:39:33.575Z,4.25
2019-05-11T16:42:05.628Z,4.37
2019-05-11T16:44:39.520Z,3.60
2019-05-11T16:47:11.208Z,4.10
2019-05-11T16:49:43.065Z,4.33
2019-05-11T16:52:14.699Z,4.53
2019-05-11T16:54:47.774Z,4.33
2019-05-11T16:57:19.673Z,3.97
2019-05-11T16:59:52.106Z,4.17
2019-05-11T17:02:23.655Z,4.10
2019-05-11T17:04:55.657Z,6.00
2019-05-11T17:07:29.797Z,5.60
2019-05-11T17:10:01.459Z,3.87
2019-05-11T17:12:33.777Z,4.37
2019-05-11T17:15:06.056Z,4.73
2019-05-11T17:17:38.019Z,4.00
2019-05-11T17:20:10.265Z,4.00
2019-05-11T17:22:41.824Z,3.93
2019-05-11T17:25:13.269Z,3.90
2019-05-11T17:27:45.379Z,3.83
2019-05-11T17:30:19.224Z,5.40
2019-05-11T17:32:51.303Z,5.40
2019-05-11T17:35:23.287Z,4.65
2019-05-11T17:37:55.228Z,4.97
2019-05-11T17:40:28.533Z,5.33
2019-05-11T17:43:00.645Z,4.40
2019-05-11T17:45:32.437Z,5.33
2019-05-11T17:48:03.978Z,4.90
2019-05-11T17:50:38.165Z,5.33
2019-05-11T17:53:09.158Z,4.90
2019-05-11T17:55:40.771Z,4.83
2019-05-11T17:58:12.934Z,4.87
2019-05-11T18:00:44.894Z,4.87
2019-05-11T18:03:17.108Z,4.87
2019-05-11T18:05:49.050Z,3.60
2019-05-11T18:08:20.537Z,4.63
2019-05-11T18:10:52.109Z,5.53
2019-05-11T18:13:23.411Z,4.77
2019-05-11T18:15:57.622Z,4.83
2019-05-11T18:18:29.207Z,5.58
2019-05-11T18:21:02.286Z,4.57
2019-05-11T18:23:33.627Z,5.73
2019-05-11T18:26:05.679Z,4.10
2019-05-11T18:28:37.909Z,4.95
2019-05-11T18:31:09.460Z,4.47
2019-05-11T18:33:41.426Z,5.57
2019-05-11T18:36:12.802Z,5.07
2019-05-11T18:38:44.359Z,5.10
2019-05-11T18:41:15.692Z,5.10
2019-05-11T18:43:48.360Z,4.83
2019-05-11T18:46:21.410Z,5.30
2019-05-11T18:48:54.471Z,4.40
2019-05-11T18:51:26.467Z,4.93
2019-05-11T18:53:58.627Z,4.60
2019-05-11T18:56:30.764Z,5.13
2019-05-11T18:59:02.692Z,4.70
2019-05-11T19:01:34.813Z,4.43
2019-05-11T19:04:07.825Z,4.55
2019-05-11T19:06:39.630Z,5.37
2019-05-11T19:09:11.525Z,5.73
2019-05-11T19:11:43.747Z,5.25
2019-05-11T19:14:15.480Z,5.17
2019-05-11T19:16:49.165Z,5.73
2019-05-11T19:19:21.031Z,5.50
2019-05-11T19:21:53.648Z,5.90
2019-05-11T19:24:27.762Z,7.93
2019-05-11T19:26:59.330Z,6.93
2019-05-11T19:29:31.706Z,6.33
2019-05-11T19:32:03.560Z,7.95
2019-05-11T19:34:35.344Z,7.30
2019-05-11T19:37:08.648Z,6.78
2019-05-11T19:39:41.369Z,6.80
2019-05-11T19:42:13.273Z,7.57
2019-05-11T19:44:47.879Z,7.47
2019-05-11T19:47:19.729Z,7.67
2019-05-11T19:49:52.142Z,7.30
2019-05-11T19:52:24.577Z,7.58
2019-05-11T19:54:57.763Z,7.23
2019-05-11T19:57:30.059Z,7.03
2019-05-11T20:00:02.128Z,7.67
2019-05-11T20:02:33.674Z,8.73
2019-05-11T20:05:05.226Z,9.63
2019-05-11T20:07:37.872Z,9.60
2019-05-11T20:10:10.079Z,8.88
2019-05-11T20:12:42.398Z,7.73
2019-05-11T20:15:14.299Z,7.90
2019-05-11T20:17:48.591Z,6.90
2019-05-11T20:20:20.077Z,6.87
2019-05-11T20:22:52.088Z,7.63
2019-05-11T20:25:24.213Z,7.20
2019-05-11T20:27:58.412Z,7.30
2019-05-11T20:30:30.037Z,8.00
2019-05-11T20:33:02.335Z,6.75
2019-05-11T20:35:33.804Z,7.80
2019-05-11T20:38:08.462Z,8.08
2019-05-11T20:40:39.445Z,7.87
2019-05-11T20:43:11.816Z,8.28
2019-05-11T20:45:43.692Z,9.18
2019-05-11T20:48:15.635Z,8.77
2019-05-11T20:50:48.338Z,8.33
2019-05-11T20:53:20.708Z,8.10
2019-05-11T20:55:53.523Z,7.90
2019-05-11T20:58:28.756Z,7.93
2019-05-11T21:01:00.771Z,8.80
2019-05-11T21:03:32.363Z,7.85
2019-05-11T21:06:04.639Z,7.83
2019-05-11T21:08:38.569Z,9.37
2019-05-11T21:11:09.970Z,7.37
2019-05-11T21:13:41.604Z,8.50
2019-05-11T21:16:13.636Z,7.90
2019-05-11T21:18:45.630Z,8.67
2019-05-11T21:21:17.489Z,7.87
2019-05-11T21:23:53.056Z,10.60
2019-05-11T21:26:28.229Z,8.80
2019-05-11T21:29:00.646Z,8.97
2019-05-11T21:31:32.316Z,9.40
2019-05-11T21:34:04.162Z,8.87
2019-05-11T21:36:37.917Z,9.00
2019-05-11T21:39:09.724Z,5.60
2019-05-11T21:41:41.680Z,5.30
2019-05-11T21:44:13.638Z,4.77
2019-05-11T21:46:45.708Z,4.30
2019-05-11T21:49:18.414Z,3.80
2019-05-11T21:52:03.664Z,3.23
2019-05-11T21:54:24.175Z,2.87
2019-05-11T21:56:57.826Z,3.20
2019-05-11T21:59:30.138Z,2.67
2019-05-11T22:02:02.012Z,2.67
2019-05-11T22:04:33.859Z,2.33
2019-05-11T22:07:07.863Z,2.27
2019-05-11T22:09:41.643Z,2.97
2019-05-11T22:12:12.988Z,2.53
2019-05-11T22:14:44.953Z,3.02
2019-05-11T22:17:18.219Z,2.80
2019-05-11T22:19:49.887Z,2.83
2019-05-11T22:22:25.282Z,2.70
2019-05-11T22:24:58.351Z,2.30
2019-05-11T22:27:29.779Z,2.60
2019-05-11T22:30:01.454Z,2.50
2019-05-11T22:32:33.522Z,2.60
2019-05-11T22:35:04.891Z,2.60
2019-05-11T22:37:38.679Z,2.90
2019-05-11T22:40:10.333Z,2.85
2019-05-11T22:42:42.452Z,2.80
2019-05-11T22:45:13.962Z,2.55
2019-05-11T22:47:48.032Z,2.40
2019-05-11T22:50:19.001Z,2.57
2019-05-11T22:52:50.070Z,1.93
2019-05-11T22:55:21.583Z,2.67
2019-05-11T22:57:53.860Z,2.63
2019-05-11T23:00:42.100Z,2.02
2019-05-11T23:03:14.449Z,2.83
2019-05-11T23:05:47.713Z,3.07
2019-05-11T23:08:19.387Z,3.23
2019-05-11T23:10:51.094Z,3.67
2019-05-11T23:13:22.878Z,3.07
2019-05-11T23:15:54.521Z,3.90
2019-05-11T23:18:28.637Z,3.17
2019-05-11T23:21:00.336Z,2.77
2019-05-11T23:23:31.935Z,2.87
2019-05-11T23:26:03.663Z,2.00
2019-05-11T23:28:35.246Z,2.20
2019-05-11T23:31:08.951Z,2.63
2019-05-11T23:33:40.481Z,2.35
2019-05-11T23:36:12.075Z,2.30
2019-05-11T23:38:43.988Z,2.20
2019-05-11T23:41:24.195Z,2.50
2019-05-11T23:43:48.933Z,3.00
2019-05-11T23:46:21.239Z,2.40
2019-05-11T23:48:52.760Z,1.77
2019-05-11T23:51:24.835Z,2.23
2019-05-11T23:53:58.625Z,2.83
2019-05-11T23:56:30.209Z,2.47
2019-05-11T23:59:01.481Z,2.47
